PHMRL EHAM-EHAM
Flight info
| Callsign | PHMRL |
|---|---|
| Flight time | 0h 5m |
| Altitude | 1500 |
| Route | VFR |
| Aircraft | C172/L-SD/L1 |
Departure
| Time | 2026-05-01 14:08 |
|---|---|
| Airport | Amsterdam Airport Schiphol (EHAM) |
Arrival
| Time | 2026-05-01 14:13 |
|---|---|
| Airport | Amsterdam Airport Schiphol (EHAM) |
| Time | Latitude | Longitude | Altitude | Speed | Heading |
|---|---|---|---|---|---|
| 2026-05-01 13:57 | 52.31190 | 4.80462 | -6 ft | 0 kts | 132° |
| 2026-05-01 14:00 | 52.31189 | 4.80464 | -6 ft | 0 kts | 131° |
| 2026-05-01 14:00 | 52.31179 | 4.80495 | -6 ft | 0 kts | 80° |
| 2026-05-01 14:00 | 52.31221 | 4.80559 | -6 ft | 18 kts | 26° |
| 2026-05-01 14:00 | 52.31251 | 4.80525 | -6 ft | 0 kts | 270° |
| 2026-05-01 14:01 | 52.31250 | 4.80507 | -6 ft | 4 kts | 268° |
| 2026-05-01 14:01 | 52.31254 | 4.80446 | -6 ft | 2 kts | 321° |
| 2026-05-01 14:01 | 52.31310 | 4.80451 | -6 ft | 12 kts | 310° |
| 2026-05-01 14:01 | 52.31329 | 4.80412 | -6 ft | 0 kts | 310° |
| 2026-05-01 14:02 | 52.31337 | 4.80397 | -6 ft | 7 kts | 309° |
| 2026-05-01 14:02 | 52.31385 | 4.80284 | -6 ft | 14 kts | 263° |
| 2026-05-01 14:03 | 52.31249 | 4.80082 | -6 ft | 52 kts | 219° |
| 2026-05-01 14:03 | 52.30901 | 4.79562 | 99 ft | 78 kts | 213° |
| 2026-05-01 14:03 | 52.30426 | 4.78941 | 238 ft | 90 kts | 196° |
| 2026-05-01 14:03 | 52.29946 | 4.79362 | 440 ft | 85 kts | 124° |
| 2026-05-01 14:04 | 52.30024 | 4.80263 | 570 ft | 99 kts | 47° |
| 2026-05-01 14:04 | 52.30567 | 4.80987 | 513 ft | 98 kts | 48° |
| 2026-05-01 14:04 | 52.31172 | 4.81210 | 350 ft | 108 kts | 314° |
| 2026-05-01 14:04 | 52.31419 | 4.80511 | 171 ft | 103 kts | 258° |
| 2026-05-01 14:05 | 52.30880 | 4.79545 | 0 ft | 73 kts | 212° |
| 2026-05-01 14:05 | 52.30501 | 4.79022 | 58 ft | 77 kts | 214° |
| 2026-05-01 14:05 | 52.30049 | 4.78736 | 241 ft | 70 kts | 135° |
| 2026-05-01 14:05 | 52.29734 | 4.79371 | 434 ft | 70 kts | 107° |
| 2026-05-01 14:06 | 52.30116 | 4.80090 | 445 ft | 97 kts | 46° |
| 2026-05-01 14:06 | 52.30669 | 4.80816 | 450 ft | 107 kts | 46° |
| 2026-05-01 14:06 | 52.31302 | 4.80600 | 241 ft | 107 kts | 303° |
| 2026-05-01 14:06 | 52.31084 | 4.79823 | 62 ft | 65 kts | 206° |
| 2026-05-01 14:07 | 52.30794 | 4.79441 | -6 ft | 41 kts | 216° |
| 2026-05-01 14:07 | 52.30511 | 4.79002 | 61 ft | 68 kts | 213° |
| 2026-05-01 14:07 | 52.30093 | 4.78519 | 253 ft | 72 kts | 178° |
| 2026-05-01 14:08 | 52.29629 | 4.79776 | 705 ft | 93 kts | 49° |
| 2026-05-01 14:08 | 52.30217 | 4.80501 | 625 ft | 109 kts | 45° |
| 2026-05-01 14:08 | 52.30817 | 4.81233 | 434 ft | 104 kts | 33° |
| 2026-05-01 14:08 | 52.31369 | 4.80722 | 251 ft | 94 kts | 294° |
| 2026-05-01 14:09 | 52.31161 | 4.79940 | 21 ft | 66 kts | 209° |
| 2026-05-01 14:09 | 52.30856 | 4.79527 | -6 ft | 53 kts | 221° |
| 2026-05-01 14:09 | 52.30501 | 4.78992 | 91 ft | 81 kts | 210° |
| 2026-05-01 14:09 | 52.30024 | 4.78597 | 337 ft | 71 kts | 145° |
| 2026-05-01 14:10 | 52.29570 | 4.79155 | 412 ft | 92 kts | 135° |
| 2026-05-01 14:10 | 52.29786 | 4.80016 | 508 ft | 105 kts | 42° |
| 2026-05-01 14:10 | 52.30373 | 4.80635 | 564 ft | 90 kts | 39° |
| 2026-05-01 14:10 | 52.30949 | 4.81124 | 394 ft | 97 kts | 16° |
| 2026-05-01 14:11 | 52.31398 | 4.80511 | 176 ft | 81 kts | 262° |
| 2026-05-01 14:11 | 52.30879 | 4.79556 | 42 ft | 56 kts | 215° |
| 2026-05-01 14:11 | 52.30526 | 4.79006 | 155 ft | 77 kts | 209° |
| 2026-05-01 14:12 | 52.30059 | 4.78540 | 340 ft | 81 kts | 174° |
| 2026-05-01 14:12 | 52.29599 | 4.79114 | 461 ft | 91 kts | 128° |
| 2026-05-01 14:12 | 52.29816 | 4.79953 | 436 ft | 104 kts | 59° |
| 2026-05-01 14:12 | 52.30391 | 4.80512 | 459 ft | 96 kts | 43° |
| 2026-05-01 14:13 | 52.31049 | 4.81010 | 326 ft | 108 kts | 349° |
| 2026-05-01 14:13 | 52.31378 | 4.80444 | 136 ft | 95 kts | 264° |
| 2026-05-01 14:13 | 52.30981 | 4.79683 | 0 ft | 45 kts | 207° |
| 2026-05-01 14:13 | 52.30680 | 4.79277 | 51 ft | 69 kts | 207° |
| 2026-05-01 14:14 | 52.30244 | 4.78745 | 223 ft | 84 kts | 205° |
| 2026-05-01 14:14 | 52.29742 | 4.78868 | 408 ft | 83 kts | 136° |
| 2026-05-01 14:14 | 52.29808 | 4.79632 | 396 ft | 89 kts | 40° |
| 2026-05-01 14:14 | 52.30297 | 4.80194 | 370 ft | 87 kts | 47° |
| 2026-05-01 14:15 | 52.30799 | 4.80873 | 298 ft | 93 kts | 49° |
| 2026-05-01 14:15 | 52.31356 | 4.80834 | 154 ft | 90 kts | 290° |
| 2026-05-01 14:15 | 52.31163 | 4.79924 | 81 ft | 95 kts | 211° |
| 2026-05-01 14:15 | 52.30576 | 4.79120 | 42 ft | 118 kts | 214° |
| 2026-05-01 14:16 | 52.29923 | 4.78593 | 234 ft | 99 kts | 161° |
| 2026-05-01 14:16 | 52.29468 | 4.79261 | 345 ft | 87 kts | 109° |
| 2026-05-01 14:16 | 52.29895 | 4.80110 | 427 ft | 103 kts | 44° |
| 2026-05-01 14:16 | 52.30465 | 4.80762 | 364 ft | 93 kts | 46° |
| 2026-05-01 14:17 | 52.31015 | 4.81260 | 284 ft | 91 kts | 1° |
| 2026-05-01 14:17 | 52.31403 | 4.80456 | 104 ft | 92 kts | 256° |
| 2026-05-01 14:17 | 52.31057 | 4.79802 | 1 ft | 68 kts | 210° |
| 2026-05-01 14:17 | 52.30714 | 4.79335 | 16 ft | 68 kts | 211° |
| 2026-05-01 14:18 | 52.30344 | 4.78769 | 222 ft | 80 kts | 213° |
| 2026-05-01 14:18 | 52.29821 | 4.78598 | 338 ft | 83 kts | 139° |
| 2026-05-01 14:18 | 52.29607 | 4.79462 | 457 ft | 100 kts | 66° |
| 2026-05-01 14:18 | 52.29965 | 4.80009 | 494 ft | 105 kts | 48° |
| 2026-05-01 14:19 | 52.30737 | 4.81041 | 390 ft | 105 kts | 43° |
| 2026-05-01 14:19 | 52.31342 | 4.80975 | 270 ft | 96 kts | 303° |
| 2026-05-01 14:19 | 52.31279 | 4.80110 | 63 ft | 71 kts | 207° |
| 2026-05-01 14:19 | 52.30944 | 4.79657 | -6 ft | 52 kts | 214° |
| 2026-05-01 14:20 | 52.30603 | 4.79140 | 80 ft | 80 kts | 215° |
| 2026-05-01 14:20 | 52.29685 | 4.78835 | 420 ft | 90 kts | 130° |
| 2026-05-01 14:20 | 52.29993 | 4.79631 | 429 ft | 102 kts | 40° |
| 2026-05-01 14:21 | 52.30567 | 4.80354 | 417 ft | 106 kts | 48° |
| 2026-05-01 14:21 | 52.31173 | 4.80815 | 321 ft | 107 kts | 338° |
| 2026-05-01 14:21 | 52.31185 | 4.79971 | 52 ft | 74 kts | 212° |
| 2026-05-01 14:22 | 52.30832 | 4.79495 | -6 ft | 0 kts | 223° |
| 2026-05-01 14:24 | 52.30814 | 4.79467 | -6 ft | 22 kts | 229° |
| 2026-05-01 14:24 | 52.30565 | 4.79098 | 33 ft | 63 kts | 208° |
| 2026-05-01 14:24 | 52.30165 | 4.78956 | 158 ft | 69 kts | 129° |
| 2026-05-01 14:25 | 52.29877 | 4.79640 | 379 ft | 77 kts | 94° |
| 2026-05-01 14:25 | 52.30253 | 4.80368 | 446 ft | 95 kts | 53° |
| 2026-05-01 14:25 | 52.30801 | 4.81104 | 359 ft | 101 kts | 34° |
| 2026-05-01 14:25 | 52.31399 | 4.80769 | 171 ft | 103 kts | 282° |
| 2026-05-01 14:26 | 52.31090 | 4.79861 | 51 ft | 88 kts | 214° |
| 2026-05-01 14:26 | 52.30573 | 4.79110 | -6 ft | 0 kts | 221° |
| 2026-05-01 14:30 | 52.30486 | 4.78990 | -6 ft | 44 kts | 227° |
| 2026-05-01 14:30 | 52.30146 | 4.78560 | 77 ft | 65 kts | 172° |
| 2026-05-01 14:31 | 52.29793 | 4.79875 | 389 ft | 105 kts | 48° |
| 2026-05-01 14:31 | 52.30397 | 4.80630 | 430 ft | 109 kts | 40° |
| 2026-05-01 14:31 | 52.31043 | 4.81011 | 300 ft | 103 kts | 346° |
| 2026-05-01 14:31 | 52.31326 | 4.80205 | 70 ft | 76 kts | 222° |
| 2026-05-01 14:32 | 52.30995 | 4.79720 | -6 ft | 51 kts | 216° |
| 2026-05-01 14:32 | 52.30691 | 4.79277 | 93 ft | 71 kts | 220° |
| 2026-05-01 14:32 | 52.30315 | 4.78615 | 281 ft | 79 kts | 198° |
| 2026-05-01 14:32 | 52.29785 | 4.78810 | 424 ft | 87 kts | 137° |
| 2026-05-01 14:33 | 52.29657 | 4.79796 | 571 ft | 107 kts | 64° |
| 2026-05-01 14:33 | 52.30373 | 4.80478 | 612 ft | 123 kts | 40° |
| 2026-05-01 14:33 | 52.31078 | 4.81295 | 628 ft | 121 kts | 45° |
| 2026-05-01 14:33 | 52.31660 | 4.82212 | 721 ft | 111 kts | 50° |
| 2026-05-01 14:34 | 52.32283 | 4.83038 | 823 ft | 116 kts | 45° |
| 2026-05-01 14:34 | 52.32935 | 4.83880 | 923 ft | 122 kts | 45° |
| 2026-05-01 14:34 | 52.33613 | 4.84772 | 998 ft | 128 kts | 45° |
| 2026-05-01 14:34 | 52.34335 | 4.85735 | 1010 ft | 133 kts | 45° |
| 2026-05-01 14:35 | 52.34992 | 4.86596 | 1000 ft | 108 kts | 45° |
| 2026-05-01 14:35 | 52.35569 | 4.87314 | 1004 ft | 102 kts | 45° |
| 2026-05-01 14:35 | 52.36142 | 4.88023 | 1003 ft | 102 kts | 45° |
| 2026-05-01 14:35 | 52.36719 | 4.88750 | 1009 ft | 103 kts | 46° |
| 2026-05-01 14:36 | 52.37296 | 4.89470 | 1009 ft | 103 kts | 45° |
| 2026-05-01 14:36 | 52.37965 | 4.89971 | 1001 ft | 116 kts | 360° |
| 2026-05-01 14:36 | 52.38792 | 4.89431 | 1013 ft | 134 kts | 336° |
| 2026-05-01 14:36 | 52.39682 | 4.88786 | 1010 ft | 143 kts | 337° |
| 2026-05-01 14:37 | 52.40505 | 4.87866 | 1005 ft | 146 kts | 304° |
| 2026-05-01 14:37 | 52.40780 | 4.86301 | 1004 ft | 142 kts | 261° |
| 2026-05-01 14:37 | 52.40373 | 4.84912 | 1004 ft | 132 kts | 217° |
| 2026-05-01 14:37 | 52.39549 | 4.84448 | 1003 ft | 122 kts | 173° |
| 2026-05-01 14:38 | 52.38751 | 4.84894 | 1007 ft | 121 kts | 153° |
| 2026-05-01 14:38 | 52.37978 | 4.85444 | 1008 ft | 121 kts | 154° |
| 2026-05-01 14:38 | 52.37190 | 4.85976 | 1006 ft | 122 kts | 156° |
| 2026-05-01 14:38 | 52.36453 | 4.86629 | 1002 ft | 120 kts | 132° |
| 2026-05-01 14:39 | 52.36230 | 4.87940 | 1002 ft | 125 kts | 88° |
| 2026-05-01 14:39 | 52.36697 | 4.89190 | 1004 ft | 137 kts | 43° |
| 2026-05-01 14:39 | 52.37631 | 4.89595 | 1004 ft | 145 kts | 359° |
| 2026-05-01 14:39 | 52.38586 | 4.88988 | 1006 ft | 147 kts | 333° |
| 2026-05-01 14:40 | 52.39501 | 4.88204 | 1006 ft | 147 kts | 334° |
| 2026-05-01 14:40 | 52.40363 | 4.87279 | 1002 ft | 148 kts | 310° |
| 2026-05-01 14:40 | 52.40697 | 4.85747 | 1003 ft | 140 kts | 264° |
| 2026-05-01 14:40 | 52.40338 | 4.84314 | 1003 ft | 132 kts | 220° |
| 2026-05-01 14:41 | 52.39536 | 4.83748 | 1002 ft | 122 kts | 174° |
| 2026-05-01 14:41 | 52.38721 | 4.84073 | 1010 ft | 120 kts | 156° |
| 2026-05-01 14:41 | 52.37933 | 4.84553 | 1008 ft | 120 kts | 158° |
| 2026-05-01 14:41 | 52.37220 | 4.85250 | 1002 ft | 119 kts | 129° |
| 2026-05-01 14:42 | 52.37001 | 4.86547 | 1006 ft | 121 kts | 95° |
| 2026-05-01 14:42 | 52.37039 | 4.87953 | 1007 ft | 122 kts | 91° |
| 2026-05-01 14:42 | 52.37088 | 4.89351 | 1006 ft | 124 kts | 92° |
| 2026-05-01 14:42 | 52.37146 | 4.90771 | 1008 ft | 123 kts | 91° |
| 2026-05-01 14:43 | 52.37194 | 4.92176 | 1006 ft | 123 kts | 90° |
| 2026-05-01 14:43 | 52.37231 | 4.93576 | 1008 ft | 122 kts | 91° |
| 2026-05-01 14:43 | 52.37272 | 4.94958 | 1056 ft | 119 kts | 92° |
| 2026-05-01 14:43 | 52.37325 | 4.96302 | 1127 ft | 118 kts | 92° |
| 2026-05-01 14:44 | 52.37408 | 4.97641 | 1201 ft | 118 kts | 82° |
| 2026-05-01 14:44 | 52.38853 | 4.99019 | 1341 ft | 138 kts | 1° |
| 2026-05-01 14:44 | 52.39807 | 4.98961 | 1401 ft | 130 kts | 1° |
| 2026-05-01 14:45 | 52.40670 | 4.98883 | 1408 ft | 119 kts | 359° |
| 2026-05-01 14:45 | 52.42249 | 4.98787 | 1415 ft | 112 kts | 0° |
| 2026-05-01 14:45 | 52.43047 | 4.98760 | 1419 ft | 118 kts | 2° |
| 2026-05-01 14:46 | 52.43889 | 4.98687 | 1418 ft | 120 kts | 2° |
| 2026-05-01 14:46 | 52.45580 | 4.98549 | 1416 ft | 124 kts | 3° |
| 2026-05-01 14:46 | 52.46453 | 4.98490 | 1416 ft | 124 kts | 360° |
| 2026-05-01 14:47 | 52.47318 | 4.98459 | 1417 ft | 125 kts | 2° |
| 2026-05-01 14:47 | 52.48193 | 4.98397 | 1416 ft | 125 kts | 1° |
| 2026-05-01 14:47 | 52.49066 | 4.98320 | 1417 ft | 124 kts | 2° |
| 2026-05-01 14:48 | 52.50724 | 4.98126 | 1416 ft | 123 kts | 1° |
| 2026-05-01 14:48 | 52.51581 | 4.98045 | 1417 ft | 123 kts | 2° |
| 2026-05-01 14:48 | 52.53258 | 4.98332 | 1416 ft | 121 kts | 16° |
| 2026-05-01 14:49 | 52.54941 | 4.98830 | 1419 ft | 123 kts | 15° |
| 2026-05-01 14:49 | 52.56624 | 4.99313 | 1419 ft | 123 kts | 15° |
| 2026-05-01 14:50 | 52.57706 | 4.99624 | 1410 ft | 116 kts | 13° |
| 2026-05-01 14:50 | 52.59773 | 5.00216 | 1415 ft | 109 kts | 15° |
| 2026-05-01 14:51 | 52.60520 | 5.00439 | 1415 ft | 109 kts | 12° |
| 2026-05-01 14:51 | 52.62024 | 5.00875 | 1417 ft | 109 kts | 14° |
| 2026-05-01 14:52 | 52.63529 | 5.01303 | 1417 ft | 110 kts | 13° |
| 2026-05-01 14:52 | 52.64285 | 5.01519 | 1418 ft | 109 kts | 16° |
| 2026-05-01 14:52 | 52.65786 | 5.01962 | 1417 ft | 110 kts | 11° |
| 2026-05-01 14:53 | 52.66540 | 5.02174 | 1417 ft | 109 kts | 11° |
| 2026-05-01 14:53 | 52.67291 | 5.02392 | 1417 ft | 109 kts | 8° |
| 2026-05-01 14:53 | 52.68051 | 5.02610 | 1417 ft | 109 kts | 11° |
| 2026-05-01 14:53 | 52.68805 | 5.02830 | 1417 ft | 109 kts | 9° |
| 2026-05-01 14:54 | 52.69549 | 5.03047 | 1417 ft | 109 kts | 8° |
| 2026-05-01 14:54 | 52.70311 | 5.03266 | 1418 ft | 109 kts | 7° |
| 2026-05-01 14:54 | 52.71052 | 5.03480 | 1416 ft | 109 kts | 8° |
| 2026-05-01 14:54 | 52.71820 | 5.03693 | 1419 ft | 112 kts | 12° |
| 2026-05-01 14:55 | 52.72608 | 5.03920 | 1419 ft | 114 kts | 13° |
| 2026-05-01 14:55 | 52.73394 | 5.04162 | 1418 ft | 116 kts | 7° |
| 2026-05-01 14:55 | 52.74196 | 5.04392 | 1417 ft | 117 kts | 9° |
| 2026-05-01 14:55 | 52.75003 | 5.04620 | 1418 ft | 118 kts | 8° |
| 2026-05-01 14:56 | 52.75816 | 5.04852 | 1418 ft | 118 kts | 11° |
| 2026-05-01 14:56 | 52.76638 | 5.05088 | 1418 ft | 118 kts | 13° |
| 2026-05-01 14:56 | 52.77448 | 5.05334 | 1417 ft | 118 kts | 10° |
| 2026-05-01 14:56 | 52.78258 | 5.05245 | 1417 ft | 118 kts | 335° |
| 2026-05-01 14:57 | 52.78981 | 5.04604 | 1417 ft | 118 kts | 328° |
| 2026-05-01 14:57 | 52.79676 | 5.02470 | 1289 ft | 111 kts | 270° |
| 2026-05-01 14:57 | 52.79987 | 5.01199 | 874 ft | 127 kts | 306° |
| 2026-05-01 14:58 | 52.80786 | 5.01013 | 695 ft | 123 kts | 7° |
| 2026-05-01 14:58 | 52.81541 | 5.01684 | 484 ft | 127 kts | 56° |
| 2026-05-01 14:58 | 52.81986 | 5.02902 | 382 ft | 112 kts | 82° |
| 2026-05-01 14:58 | 52.81648 | 5.03038 | 244 ft | 111 kts | 254° |
| 2026-05-01 14:59 | 52.81924 | 5.01774 | 251 ft | 124 kts | 316° |
| 2026-05-01 14:59 | 52.82585 | 5.02076 | 376 ft | 111 kts | 73° |
| 2026-05-01 14:59 | 52.82430 | 5.03281 | 298 ft | 113 kts | 123° |
| 2026-05-01 14:59 | 52.81900 | 5.02966 | 81 ft | 96 kts | 228° |